Time;durP1;ratioP1;P1;durP2;ratioP2;P2;SDS_P1;SDS_P2;PMS_P1;PMS_P2;Temp;Humidity;BMP_temperature;BMP_pressure;BME280_temperature;BME280_humidity;BME280_pressure;Samples;Min_cycle;Max_cycle;Signal;HPM_P1;HPM_P2
2023/05/02 00:02:16;;;;;;;24.30;19.13;;;;;;;11.24;92.08;101781.63;4913949;28;20052;-73
2023/05/02 00:04:42;;;;;;;28.95;20.80;;;;;;;11.22;92.65;101784.34;4921988;28;20040;-73
2023/05/02 00:07:07;;;;;;;24.00;19.42;;;;;;;11.21;92.74;101792.41;4915246;28;20507;-73
2023/05/02 00:09:33;;;;;;;23.75;18.92;;;;;;;11.23;92.88;101786.09;4913336;28;20039;-74
2023/05/02 00:11:58;;;;;;;22.92;18.60;;;;;;;11.21;92.52;101797.75;4974820;28;20542;-73
2023/05/02 00:14:24;;;;;;;23.50;18.30;;;;;;;11.26;92.58;101801.09;4931790;28;20447;-73
2023/05/02 00:16:50;;;;;;;25.98;18.85;;;;;;;11.27;92.46;101796.63;4939533;28;20024;-73
2023/05/02 00:19:15;;;;;;;26.27;19.00;;;;;;;11.28;92.50;101804.56;4901568;28;20031;-73
2023/05/02 00:21:40;;;;;;;26.80;18.77;;;;;;;11.24;92.84;101808.25;4956838;28;20115;-73
2023/05/02 00:24:06;;;;;;;24.42;18.75;;;;;;;11.29;93.15;101811.66;4903346;28;20028;-73
2023/05/02 00:26:31;;;;;;;26.17;20.73;;;;;;;11.31;93.08;101815.09;4923811;28;20043;-73
2023/05/02 00:28:57;;;;;;;25.10;19.52;;;;;;;11.25;93.39;101804.69;4908517;28;20542;-72
2023/05/02 00:31:22;;;;;;;28.23;20.90;;;;;;;11.31;93.64;101817.78;4904367;29;20039;-72
2023/05/02 00:33:48;;;;;;;28.90;20.25;;;;;;;11.24;93.60;101818.94;4916986;28;20439;-72
2023/05/02 00:36:14;;;;;;;27.17;21.52;;;;;;;11.26;93.72;101811.75;4906769;28;20167;-74
2023/05/02 00:38:40;;;;;;;26.35;20.35;;;;;;;11.33;93.63;101815.03;4910593;28;20287;-73
2023/05/02 00:41:05;;;;;;;27.83;21.35;;;;;;;11.26;93.99;101816.22;4900259;28;20032;-72
2023/05/02 00:43:31;;;;;;;27.80;20.25;;;;;;;11.32;93.67;101813.31;4893227;28;20021;-72
2023/05/02 00:45:57;;;;;;;27.45;20.00;;;;;;;11.32;93.66;101823.97;4913222;28;20404;-73
2023/05/02 00:48:24;;;;;;;27.20;20.48;;;;;;;11.26;93.82;101817.09;4899323;28;20341;-72
2023/05/02 00:50:50;;;;;;;26.63;19.40;;;;;;;11.28;94.28;101817.03;4906031;28;20070;-72
2023/05/02 00:53:15;;;;;;;28.73;20.52;;;;;;;11.26;94.36;101819.75;4899061;28;20488;-73
2023/05/02 00:55:41;;;;;;;28.27;20.52;;;;;;;11.20;94.21;101817.31;4900236;28;20112;-72
2023/05/02 00:58:17;;;;;;;27.15;19.85;;;;;;;11.16;94.70;101826.34;4902280;28;20028;-72
2023/05/02 01:00:42;;;;;;;26.38;18.40;;;;;;;11.10;94.18;101818.59;4903622;28;20139;-73
2023/05/02 01:03:25;;;;;;;24.90;18.23;;;;;;;11.11;94.45;101833.66;4899611;28;20106;-72
2023/05/02 01:06:08;;;;;;;24.35;17.45;;;;;;;11.13;93.59;101838.00;4899189;28;20043;-72
2023/05/02 01:08:42;;;;;;;21.87;17.17;;;;;;;11.11;93.36;101833.66;4902860;28;20090;-73
2023/05/02 01:11:17;;;;;;;19.73;16.10;;;;;;;11.07;93.31;101830.22;4909759;28;20057;-72
2023/05/02 01:13:44;;;;;;;19.80;14.63;;;;;;;10.90;92.34;101820.19;4900139;28;20043;-72
2023/05/02 01:16:12;;;;;;;19.92;14.73;;;;;;;10.75;92.66;101828.75;4923067;28;20054;-73
2023/05/02 01:18:40;;;;;;;17.23;13.68;;;;;;;10.73;93.49;101825.25;4907991;28;20028;-73
2023/05/02 01:21:08;;;;;;;20.75;15.18;;;;;;;10.63;93.76;101822.06;4919828;28;20526;-72
2023/05/02 01:24:04;;;;;;;19.58;15.05;;;;;;;10.63;93.93;101818.53;4904237;29;20036;-72
2023/05/02 01:26:51;;;;;;;18.98;14.38;;;;;;;10.66;94.38;101835.28;4902697;28;20071;-73
2023/05/02 01:29:19;;;;;;;20.52;14.75;;;;;;;10.57;94.79;101829.38;4901844;28;20063;-72
2023/05/02 01:31:48;;;;;;;19.02;14.80;;;;;;;10.45;95.46;101823.59;4904051;28;20106;-73
2023/05/02 01:34:17;;;;;;;18.38;14.38;;;;;;;10.51;95.46;101835.81;4886964;28;20032;-74
2023/05/02 01:36:45;;;;;;;21.15;15.63;;;;;;;10.41;96.25;101834.41;4910011;28;20028;-72
2023/05/02 01:39:14;;;;;;;20.05;14.27;;;;;;;10.51;96.21;101832.28;4903463;28;20527;-72
2023/05/02 01:41:41;;;;;;;19.27;14.40;;;;;;;10.43;96.45;101836.06;4906200;28;20035;-72
2023/05/02 01:44:09;;;;;;;23.88;15.77;;;;;;;10.48;96.53;101836.78;4924235;28;20024;-72
2023/05/02 01:46:38;;;;;;;20.38;14.73;;;;;;;10.51;96.41;101843.78;4907247;28;20196;-72
2023/05/02 01:49:06;;;;;;;18.40;14.57;;;;;;;10.44;96.74;101835.13;4904967;28;20055;-71
2023/05/02 01:51:34;;;;;;;19.17;15.10;;;;;;;10.42;96.47;101833.47;4901937;28;20131;-73
2023/05/02 01:54:03;;;;;;;20.80;14.38;;;;;;;10.39;96.62;101838.88;4919304;28;20032;-73
2023/05/02 01:56:31;;;;;;;19.80;14.65;;;;;;;10.30;96.57;101840.06;4906775;28;20068;-73
2023/05/02 01:58:58;;;;;;;16.80;12.88;;;;;;;10.31;96.66;101846.25;4907112;28;20043;-73
2023/05/02 02:01:26;;;;;;;16.13;11.88;;;;;;;10.19;96.67;101848.38;4907594;28;20407;-73
2023/05/02 02:03:55;;;;;;;16.27;11.52;;;;;;;10.08;96.98;101860.31;4913877;28;20028;-73
2023/05/02 02:06:21;;;;;;;14.30;11.57;;;;;;;10.16;96.78;101859.13;4928969;28;20094;-74
2023/05/02 02:08:46;;;;;;;14.30;11.13;;;;;;;10.03;97.08;101862.22;4905367;28;20476;-73
2023/05/02 02:11:23;;;;;;;15.35;10.52;;;;;;;10.00;97.44;101860.56;4942306;28;20516;-72
2023/05/02 02:13:54;;;;;;;14.60;10.15;;;;;;;9.98;97.57;101865.91;4905235;28;20220;-73
2023/05/02 02:16:27;;;;;;;14.77;10.48;;;;;;;10.06;97.51;101865.66;4910651;28;20028;-73
2023/05/02 02:18:55;;;;;;;14.73;10.73;;;;;;;10.07;97.69;101874.50;4910125;28;20030;-73
2023/05/02 02:21:23;;;;;;;13.77;10.70;;;;;;;10.06;97.93;101872.78;4916753;28;20067;-73
2023/05/02 02:23:52;;;;;;;15.25;11.18;;;;;;;10.10;97.92;101877.94;4907682;28;20094;-74
2023/05/02 02:26:20;;;;;;;15.07;11.77;;;;;;;10.20;97.67;101875.88;4900274;28;20032;-72
2023/05/02 02:28:46;;;;;;;16.20;12.20;;;;;;;10.29;97.51;101872.06;4899976;28;20036;-74
2023/05/02 02:31:12;;;;;;;15.30;11.80;;;;;;;10.28;97.25;101871.16;4915278;28;20021;-73
2023/05/02 02:33:37;;;;;;;16.17;11.45;;;;;;;10.35;97.51;101874.50;4913466;28;20689;-73
2023/05/02 02:36:23;;;;;;;15.63;12.52;;;;;;;10.42;97.09;101879.59;4901952;28;20051;-72
2023/05/02 02:39:08;;;;;;;15.90;12.57;;;;;;;10.41;97.42;101875.19;4900611;28;20039;-73
2023/05/02 02:41:48;;;;;;;16.73;12.40;;;;;;;10.35;98.03;101883.38;4909912;28;20105;-73
2023/05/02 02:44:31;;;;;;;16.58;12.93;;;;;;;10.34;98.17;101886.09;4901708;28;20028;-72
2023/05/02 02:47:05;;;;;;;18.83;14.38;;;;;;;10.28;98.55;101886.28;4896374;28;20021;-73
2023/05/02 02:49:46;;;;;;;18.30;13.43;;;;;;;10.31;98.83;101889.69;4906604;28;20476;-72
2023/05/02 02:52:24;;;;;;;18.05;13.10;;;;;;;10.37;98.73;101892.19;4906346;28;20032;-73
2023/05/02 02:55:06;;;;;;;17.92;13.93;;;;;;;10.31;99.08;101892.38;4946616;28;20036;-73
2023/05/02 02:57:54;;;;;;;18.95;14.23;;;;;;;10.28;99.29;101894.25;4901732;28;20114;-73
2023/05/02 03:00:23;;;;;;;18.67;13.90;;;;;;;10.29;99.49;101890.69;4929484;28;20070;-72
2023/05/02 03:02:52;;;;;;;19.00;14.52;;;;;;;10.21;99.92;101897.09;4902686;28;20024;-74
2023/05/02 03:05:18;;;;;;;18.75;14.70;;;;;;;10.15;100.00;101897.28;4932621;28;20028;-71
2023/05/02 03:07:44;;;;;;;21.00;14.95;;;;;;;10.17;100.00;101907.88;4918747;28;20562;-71
2023/05/02 03:10:10;;;;;;;18.40;14.77;;;;;;;10.20;100.00;101908.66;4905324;28;20063;-72
2023/05/02 03:12:36;;;;;;;16.77;14.18;;;;;;;10.19;100.00;101906.03;4920654;28;20516;-71
2023/05/02 03:15:25;;;;;;;17.50;13.68;;;;;;;10.27;100.00;101908.47;4903353;28;20032;-73
2023/05/02 03:17:50;;;;;;;19.40;14.75;;;;;;;10.22;100.00;101916.59;4911055;28;20039;-72
2023/05/02 03:20:15;;;;;;;18.98;14.95;;;;;;;10.20;100.00;101919.31;4910754;28;20119;-73
2023/05/02 03:22:41;;;;;;;17.42;14.95;;;;;;;10.18;100.00;101930.91;4904584;28;20051;-72
2023/05/02 03:25:07;;;;;;;19.42;16.40;;;;;;;10.17;100.00;101938.03;4904885;28;20273;-71
2023/05/02 03:27:32;;;;;;;19.23;15.43;;;;;;;10.12;100.00;101937.31;4904441;28;20471;-71
2023/05/02 03:29:57;;;;;;;18.52;14.68;;;;;;;10.14;100.00;101930.13;4913328;28;20026;-72
2023/05/02 03:32:23;;;;;;;20.15;16.75;;;;;;;10.10;100.00;101932.94;4906888;28;20032;-71
2023/05/02 03:34:48;;;;;;;19.13;16.75;;;;;;;10.07;100.00;101936.56;4903498;28;20505;-73
2023/05/02 03:37:13;;;;;;;22.50;17.52;;;;;;;10.11;100.00;101932.88;4903119;28;20075;-72
2023/05/02 03:39:39;;;;;;;19.30;16.40;;;;;;;10.13;100.00;101935.50;4904292;28;20100;-71
2023/05/02 03:42:04;;;;;;;20.55;16.33;;;;;;;10.10;100.00;101933.81;4916906;28;20032;-71
2023/05/02 03:44:29;;;;;;;18.73;16.17;;;;;;;10.07;100.00;101930.38;4923557;28;20032;-73
2023/05/02 03:46:55;;;;;;;19.88;16.05;;;;;;;10.12;100.00;101936.44;4901112;28;20036;-72
2023/05/02 03:49:20;;;;;;;20.23;16.15;;;;;;;10.14;100.00;101934.59;4917720;28;20032;-73
2023/05/02 03:51:46;;;;;;;19.17;15.77;;;;;;;10.18;100.00;101934.44;4905795;28;20147;-73
2023/05/02 03:54:11;;;;;;;18.70;15.40;;;;;;;10.18;100.00;101944.22;4904822;28;20025;-73
2023/05/02 03:56:38;;;;;;;20.10;16.08;;;;;;;10.18;100.00;101938.88;4902644;28;20055;-73
2023/05/02 03:59:04;;;;;;;23.65;16.70;;;;;;;10.15;100.00;101950.47;4904082;28;20059;-74
2023/05/02 04:01:30;;;;;;;23.17;16.67;;;;;;;10.13;100.00;101954.13;4904453;28;20201;-73
2023/05/02 04:03:55;;;;;;;18.75;16.30;;;;;;;10.07;100.00;101956.97;4909249;28;20034;-74
2023/05/02 04:06:21;;;;;;;17.95;15.10;;;;;;;10.08;100.00;101956.06;4964218;28;20476;-73
2023/05/02 04:08:46;;;;;;;21.23;15.05;;;;;;;10.07;100.00;101962.28;4904091;28;20137;-72
2023/05/02 04:11:11;;;;;;;20.40;14.68;;;;;;;10.05;100.00;101965.00;4906921;28;20028;-73
2023/05/02 04:13:37;;;;;;;18.23;14.02;;;;;;;10.11;100.00;101977.22;4904580;28;20098;-73
2023/05/02 04:16:03;;;;;;;18.13;14.70;;;;;;;10.05;100.00;101967.66;4906004;28;20028;-73
2023/05/02 04:18:29;;;;;;;17.17;13.77;;;;;;;10.09;100.00;101979.94;4904526;28;20042;-72
2023/05/02 04:20:54;;;;;;;15.90;13.38;;;;;;;10.07;100.00;101976.44;4903785;28;20036;-73
2023/05/02 04:23:19;;;;;;;18.67;12.80;;;;;;;10.06;100.00;101977.38;4901786;28;20028;-73
2023/05/02 04:25:53;;;;;;;18.88;12.25;;;;;;;10.03;100.00;101976.59;4901943;28;20444;-73
2023/05/02 04:28:20;;;;;;;14.90;10.60;;;;;;;10.04;100.00;101991.66;4917329;28;20044;-73
2023/05/02 04:30:46;;;;;;;15.57;10.52;;;;;;;9.98;100.00;101987.38;4900078;28;20042;-72
2023/05/02 04:33:11;;;;;;;11.85;7.90;;;;;;;9.89;100.00;101992.97;4911148;28;20028;-73
2023/05/02 04:35:39;;;;;;;11.95;6.60;;;;;;;9.79;100.00;101995.03;4904788;28;20063;-73
2023/05/02 04:38:05;;;;;;;11.90;5.90;;;;;;;9.71;100.00;102005.03;4907261;28;20074;-73
2023/05/02 04:40:30;;;;;;;9.55;4.60;;;;;;;9.62;97.33;102010.63;4906196;28;20063;-72
2023/05/02 04:42:55;;;;;;;8.48;3.72;;;;;;;9.54;96.32;102005.50;4921652;28;20286;-72
2023/05/02 04:45:21;;;;;;;7.50;3.63;;;;;;;9.55;95.35;102012.56;4956379;28;20074;-72
2023/05/02 04:47:46;;;;;;;7.43;3.25;;;;;;;9.47;94.15;102010.13;4898088;28;20119;-73
2023/05/02 04:50:11;;;;;;;8.52;3.33;;;;;;;9.52;94.26;102028.59;4904369;28;20054;-73
2023/05/02 04:52:37;;;;;;;9.75;3.58;;;;;;;9.41;92.84;102028.03;4922369;28;20028;-73
2023/05/02 04:55:03;;;;;;;6.47;3.08;;;;;;;9.38;92.54;102041.38;4906248;28;20590;-73
2023/05/02 04:57:28;;;;;;;5.38;2.67;;;;;;;9.36;91.73;102048.50;4901859;29;20460;-75
2023/05/02 04:59:53;;;;;;;7.15;3.00;;;;;;;9.36;91.38;102049.38;4901110;28;20138;-73
2023/05/02 05:02:19;;;;;;;5.25;2.60;;;;;;;9.32;91.77;102049.50;4925263;28;20216;-73
2023/05/02 05:04:44;;;;;;;5.90;2.85;;;;;;;9.37;91.70;102043.19;4952931;28;20111;-73
2023/05/02 05:07:10;;;;;;;4.10;2.50;;;;;;;9.46;89.96;102063.31;4905521;28;20119;-72
2023/05/02 05:09:35;;;;;;;6.93;2.50;;;;;;;9.32;88.49;102058.38;4903479;28;20575;-73
2023/05/02 05:12:01;;;;;;;4.63;2.17;;;;;;;9.22;87.88;102067.47;4903334;28;20471;-72
2023/05/02 05:14:26;;;;;;;4.57;2.28;;;;;;;9.14;87.27;102065.00;4904459;28;20112;-73
2023/05/02 05:16:51;;;;;;;5.28;2.72;;;;;;;9.13;87.41;102068.59;4916261;28;20032;-73
2023/05/02 05:19:17;;;;;;;6.55;2.58;;;;;;;9.15;87.30;102072.06;4947019;28;20108;-73
2023/05/02 05:21:42;;;;;;;5.65;2.55;;;;;;;9.23;86.74;102083.38;4914881;28;20398;-74
2023/05/02 05:24:08;;;;;;;5.10;2.30;;;;;;;9.26;86.29;102085.09;4906317;29;20354;-72
2023/05/02 05:26:33;;;;;;;4.82;2.20;;;;;;;9.30;86.31;102088.53;4924600;28;20412;-72
2023/05/02 05:28:59;;;;;;;7.30;3.45;;;;;;;9.33;86.15;102092.00;4905778;28;20484;-72
2023/05/02 05:31:24;;;;;;;7.63;3.63;;;;;;;9.33;85.95;102093.78;4906191;28;20024;-73
2023/05/02 05:33:50;;;;;;;5.97;2.55;;;;;;;9.35;85.62;102102.56;4905547;28;20497;-72
2023/05/02 05:36:16;;;;;;;6.53;2.47;;;;;;;9.40;85.66;102106.84;4906861;28;20032;-72
2023/05/02 05:38:41;;;;;;;7.28;2.55;;;;;;;9.25;84.95;102104.59;4909992;28;20215;-72
2023/05/02 05:41:07;;;;;;;8.00;3.05;;;;;;;9.07;85.74;102105.03;4906995;29;20337;-72
2023/05/02 05:43:33;;;;;;;5.50;2.55;;;;;;;9.04;85.99;102107.78;4924406;28;20127;-73
2023/05/02 05:45:59;;;;;;;4.10;2.28;;;;;;;9.17;85.63;102109.22;4912410;28;20559;-73
2023/05/02 05:48:24;;;;;;;6.22;2.25;;;;;;;9.23;85.44;102109.94;4905711;28;20036;-73
2023/05/02 05:50:53;;;;;;;4.90;2.40;;;;;;;9.36;84.91;102107.84;4906271;28;20035;-73
2023/05/02 05:53:18;;;;;;;6.85;2.40;;;;;;;9.65;82.76;102104.41;4905449;28;20098;-72
2023/05/02 05:55:44;;;;;;;5.40;2.45;;;;;;;9.84;81.84;102104.81;4903274;28;20077;-72
2023/05/02 05:58:09;;;;;;;5.78;2.10;;;;;;;10.04;80.30;102106.03;4905718;28;20504;-73
2023/05/02 06:00:36;;;;;;;6.13;2.63;;;;;;;9.93;79.96;102117.84;4906928;28;20260;-73
2023/05/02 06:03:02;;;;;;;4.20;2.28;;;;;;;9.78;79.04;102125.34;4909918;28;20066;-73
2023/05/02 06:05:28;;;;;;;3.55;2.30;;;;;;;9.90;78.71;102133.88;4945837;28;20051;-73
2023/05/02 06:07:54;;;;;;;3.20;1.90;;;;;;;10.04;78.06;102135.31;4905733;28;20127;-72
2023/05/02 06:10:19;;;;;;;4.68;2.13;;;;;;;10.09;76.67;102128.94;4916070;28;20107;-71
2023/05/02 06:12:45;;;;;;;4.65;2.45;;;;;;;10.11;76.43;102135.06;4907455;28;20439;-71
2023/05/02 06:15:10;;;;;;;3.78;2.00;;;;;;;10.14;76.84;102142.09;4904347;28;20024;-71
2023/05/02 06:17:36;;;;;;;5.03;2.15;;;;;;;10.32;76.00;102149.56;4909140;28;20048;-71
2023/05/02 06:20:02;;;;;;;3.25;2.05;;;;;;;10.44;74.53;102148.34;4921630;28;20397;-72
2023/05/02 06:22:27;;;;;;;5.72;2.50;;;;;;;10.58;73.27;102155.94;4905026;28;20070;-71
2023/05/02 06:24:52;;;;;;;5.03;2.00;;;;;;;10.64;72.13;102150.41;4920841;28;20350;-71
2023/05/02 06:27:18;;;;;;;3.55;1.90;;;;;;;10.86;71.39;102159.47;4940582;28;20030;-71
2023/05/02 06:29:43;;;;;;;4.00;2.30;;;;;;;10.85;70.63;102152.41;4922508;28;20473;-72
2023/05/02 06:32:08;;;;;;;5.65;2.53;;;;;;;11.10;70.51;102162.31;4906330;29;20037;-72
2023/05/02 06:34:34;;;;;;;4.88;2.25;;;;;;;11.29;69.91;102174.13;4912055;28;20024;-72
2023/05/02 06:36:59;;;;;;;6.35;2.60;;;;;;;11.41;69.71;102165.72;4918104;28;20028;-70
2023/05/02 06:39:25;;;;;;;4.63;2.33;;;;;;;11.47;69.21;102173.50;4924032;28;20021;-71
2023/05/02 06:41:50;;;;;;;5.43;2.20;;;;;;;11.66;68.49;102164.88;4947150;28;20133;-71
2023/05/02 06:44:16;;;;;;;4.75;2.05;;;;;;;11.83;68.80;102164.31;4905875;28;20150;-70
2023/05/02 06:46:42;;;;;;;6.18;2.42;;;;;;;12.17;67.76;102164.00;4940213;28;20552;-71
2023/05/02 06:49:07;;;;;;;7.60;2.55;;;;;;;12.35;66.79;102187.34;4926977;28;20397;-71
2023/05/02 06:51:33;;;;;;;6.38;2.33;;;;;;;12.34;66.98;102182.06;4908027;28;20054;-71
2023/05/02 06:53:59;;;;;;;6.13;2.30;;;;;;;12.19;66.76;102191.50;4932180;28;20028;-71
2023/05/02 06:56:24;;;;;;;8.02;3.00;;;;;;;12.31;67.26;102187.53;4920669;28;20143;-72
2023/05/02 06:58:51;;;;;;;5.97;2.70;;;;;;;12.37;67.41;102200.63;4934815;28;20024;-71
2023/05/02 07:01:16;;;;;;;5.05;2.45;;;;;;;12.33;67.13;102186.56;4912455;28;20500;-71
2023/05/02 07:03:41;;;;;;;7.28;2.78;;;;;;;12.39;67.16;102207.66;4913305;28;20020;-71
2023/05/02 07:06:07;;;;;;;8.55;2.35;;;;;;;12.49;66.59;102200.19;4902809;28;20044;-73
2023/05/02 07:08:32;;;;;;;6.38;2.40;;;;;;;12.64;66.53;102196.06;4914715;28;20377;-72
2023/05/02 07:10:58;;;;;;;6.82;2.60;;;;;;;12.96;65.44;102200.19;4909337;28;20056;-72
2023/05/02 07:13:23;;;;;;;7.88;2.83;;;;;;;13.28;63.78;102209.59;4899958;28;20066;-72
2023/05/02 07:15:48;;;;;;;6.85;2.60;;;;;;;13.43;62.57;102214.34;4901954;28;20106;-72
2023/05/02 07:18:14;;;;;;;8.15;2.67;;;;;;;13.39;61.92;102227.91;4934227;28;20066;-72
2023/05/02 07:20:41;;;;;;;7.90;2.72;;;;;;;13.69;61.73;102223.97;4903917;28;20135;-72
2023/05/02 07:23:08;;;;;;;9.45;3.30;;;;;;;14.02;60.03;102233.31;4903427;28;20017;-73
2023/05/02 07:25:34;;;;;;;8.50;3.05;;;;;;;13.72;58.58;102236.34;4904794;28;20176;-72
2023/05/02 07:27:59;;;;;;;7.90;2.92;;;;;;;13.17;60.37;102238.56;4905992;28;20021;-70
2023/05/02 07:30:24;;;;;;;6.82;3.00;;;;;;;13.00;61.78;102249.91;4905663;28;20569;-71
2023/05/02 07:32:50;;;;;;;10.07;2.97;;;;;;;12.84;61.67;102252.31;4911998;28;20064;-72
2023/05/02 07:35:15;;;;;;;7.93;3.13;;;;;;;12.66;62.75;102252.97;4901733;28;20387;-71
2023/05/02 07:37:41;;;;;;;9.93;3.92;;;;;;;12.64;63.46;102258.38;4925440;28;20029;-71
2023/05/02 07:40:08;;;;;;;12.20;7.13;;;;;;;12.71;63.79;102251.03;4914405;28;20028;-72
2023/05/02 07:42:34;;;;;;;9.07;3.15;;;;;;;12.74;63.43;102256.22;4903578;28;20040;-70
2023/05/02 07:44:59;;;;;;;10.45;3.50;;;;;;;12.55;64.49;102260.53;4905517;28;20039;-70
2023/05/02 07:47:25;;;;;;;8.52;3.00;;;;;;;12.16;64.58;102250.31;4917646;28;20074;-71
2023/05/02 07:49:51;;;;;;;8.35;3.00;;;;;;;11.93;64.95;102276.03;4912623;28;20494;-70
2023/05/02 07:52:18;;;;;;;7.65;3.60;;;;;;;11.70;64.86;102271.44;4923503;28;20138;-71
2023/05/02 07:54:43;;;;;;;7.30;3.90;;;;;;;11.77;65.33;102265.88;4902943;28;20263;-71
2023/05/02 07:57:09;;;;;;;8.52;3.60;;;;;;;11.89;65.33;102268.16;4902176;28;20226;-71
2023/05/02 07:59:34;;;;;;;9.60;4.45;;;;;;;12.30;64.46;102264.06;4907435;28;20167;-72
2023/05/02 08:01:59;;;;;;;10.80;3.75;;;;;;;12.70;62.54;102266.16;4903399;28;20458;-72
2023/05/02 08:04:25;;;;;;;7.07;3.03;;;;;;;12.75;62.07;102263.34;4916381;28;20031;-71
2023/05/02 08:06:51;;;;;;;13.82;5.47;;;;;;;13.04;62.17;102266.69;4902851;28;20617;-71
2023/05/02 08:09:16;;;;;;;9.85;3.25;;;;;;;13.36;60.99;102266.31;4903036;28;20404;-71
2023/05/02 08:11:41;;;;;;;7.30;3.47;;;;;;;13.12;59.71;102268.13;4908855;28;20032;-72
2023/05/02 08:14:07;;;;;;;8.73;3.42;;;;;;;12.74;61.25;102279.41;4902133;28;20668;-71
2023/05/02 08:16:32;;;;;;;7.05;3.58;;;;;;;12.23;63.33;102281.22;4916561;28;20553;-72
2023/05/02 08:18:58;;;;;;;9.18;3.95;;;;;;;11.82;64.48;102286.13;4925901;28;20028;-71
2023/05/02 08:21:23;;;;;;;9.80;4.47;;;;;;;11.54;64.92;102295.97;4904758;28;21193;-72
2023/05/02 08:23:48;;;;;;;9.27;3.90;;;;;;;11.22;64.67;102300.50;4893443;28;20504;-75
2023/05/02 08:26:14;;;;;;;9.98;3.92;;;;;;;11.01;63.64;102302.00;4915294;28;20504;-72
2023/05/02 08:28:40;;;;;;;9.55;3.00;;;;;;;11.00;63.63;102305.59;4904277;28;20067;-72
2023/05/02 08:31:05;;;;;;;8.52;3.65;;;;;;;11.00;63.56;102320.72;4903703;28;20488;-72
2023/05/02 08:33:31;;;;;;;7.95;3.53;;;;;;;10.90;63.66;102318.28;4903131;28;20036;-73
2023/05/02 08:35:56;;;;;;;7.90;3.78;;;;;;;10.94;64.48;102316.44;4900323;28;20099;-73
2023/05/02 08:38:21;;;;;;;7.43;3.60;;;;;;;11.13;63.50;102317.63;4906179;28;20036;-73
2023/05/02 08:40:47;;;;;;;9.70;3.33;;;;;;;11.28;61.13;102326.94;4903507;28;20477;-72
2023/05/02 08:43:15;;;;;;;9.57;3.47;;;;;;;11.46;60.57;102321.09;4921779;28;20034;-72
2023/05/02 08:45:43;;;;;;;7.95;2.88;;;;;;;11.58;59.94;102324.25;4908153;28;20036;-72
2023/05/02 08:48:10;;;;;;;9.23;3.13;;;;;;;11.71;60.17;102336.31;4903054;28;20040;-72
2023/05/02 08:50:41;;;;;;;7.80;3.72;;;;;;;11.73;59.61;102342.47;4928964;28;20026;-71
2023/05/02 08:53:12;;;;;;;5.63;3.10;;;;;;;11.83;59.19;102335.97;4947664;28;20381;-72
2023/05/02 08:55:39;;;;;;;8.98;3.20;;;;;;;11.92;58.99;102332.97;4907401;28;20098;-70
2023/05/02 08:58:06;;;;;;;5.88;3.05;;;;;;;12.10;58.66;102335.97;4911761;28;20058;-71
2023/05/02 09:00:39;;;;;;;8.25;3.25;;;;;;;12.53;58.18;102350.50;4899418;28;20092;-71
2023/05/02 09:03:17;;;;;;;7.40;3.42;;;;;;;12.58;56.14;102345.88;4904830;28;20376;-72
2023/05/02 09:05:50;;;;;;;8.05;3.45;;;;;;;12.75;55.17;102345.25;4903602;28;20081;-71
2023/05/02 09:08:23;;;;;;;5.78;2.90;;;;;;;13.05;54.62;102345.97;4904456;28;20035;-71
2023/05/02 09:10:52;;;;;;;6.85;2.88;;;;;;;13.46;52.20;102349.78;4905760;28;20062;-72
2023/05/02 09:13:30;;;;;;;5.50;2.60;;;;;;;13.91;51.88;102348.84;4906266;28;20035;-72
2023/05/02 09:15:58;;;;;;;6.78;2.58;;;;;;;14.36;50.07;102350.53;4904147;28;20117;-71
2023/05/02 09:18:27;;;;;;;8.95;3.40;;;;;;;14.55;48.72;102356.03;4950476;28;20028;-71
2023/05/02 09:20:53;;;;;;;5.40;2.53;;;;;;;14.58;48.71;102361.22;4902740;28;20558;-71
2023/05/02 09:23:18;;;;;;;6.28;3.08;;;;;;;14.66;47.98;102356.41;4902674;28;20024;-71
2023/05/02 09:25:45;;;;;;;6.25;2.85;;;;;;;15.02;48.54;102366.44;4904525;28;20362;-71
2023/05/02 09:28:10;;;;;;;7.75;2.78;;;;;;;14.99;47.98;102372.81;4925187;28;20035;-72
2023/05/02 09:30:35;;;;;;;5.88;3.00;;;;;;;14.79;47.78;102367.44;4915249;28;20035;-71
2023/05/02 09:33:01;;;;;;;7.13;3.00;;;;;;;14.70;47.69;102372.28;4924957;28;20039;-71
2023/05/02 09:35:26;;;;;;;5.80;3.17;;;;;;;15.04;47.77;102373.47;4902921;28;20591;-72
2023/05/02 09:37:57;;;;;;;7.85;3.45;;;;;;;15.17;46.79;102377.34;4904528;28;20527;-72
2023/05/02 09:40:23;;;;;;;8.35;3.30;;;;;;;15.56;46.31;102372.88;4904828;28;20040;-70
2023/05/02 09:42:49;;;;;;;5.53;2.83;;;;;;;15.84;45.13;102378.69;4904351;28;20043;-70
2023/05/02 09:45:19;;;;;;;6.68;2.97;;;;;;;15.65;44.49;102375.16;4918277;28;20028;-71
2023/05/02 09:47:44;;;;;;;7.90;3.17;;;;;;;16.07;44.17;102368.63;4902099;28;20051;-71
2023/05/02 09:50:10;;;;;;;7.38;2.60;;;;;;;17.68;41.61;102375.31;4905286;28;20565;-72
2023/05/02 09:52:36;;;;;;;6.82;2.80;;;;;;;18.07;39.84;102378.53;4907458;28;20445;-72
2023/05/02 09:55:20;;;;;;;9.45;2.80;;;;;;;18.17;40.03;102390.50;4900456;28;20578;-72
2023/05/02 09:57:45;;;;;;;6.30;2.78;;;;;;;16.91;39.21;102394.75;4905677;28;20097;-72
2023/05/02 10:00:14;;;;;;;6.15;2.50;;;;;;;16.23;40.54;102391.09;4904276;28;20028;-72
2023/05/02 10:02:41;;;;;;;7.53;2.50;;;;;;;15.91;42.86;102401.59;4904887;28;20134;-71
2023/05/02 10:05:09;;;;;;;7.28;2.60;;;;;;;15.26;43.15;102397.50;4903742;28;20036;-72
2023/05/02 10:07:35;;;;;;;6.65;2.85;;;;;;;14.95;43.45;102393.50;4902596;28;20032;-71
2023/05/02 10:10:01;;;;;;;7.25;3.28;;;;;;;15.04;43.70;102394.03;4904622;28;20117;-72
2023/05/02 10:12:29;;;;;;;5.00;2.42;;;;;;;15.19;42.08;102396.91;4910659;28;20094;-72
2023/05/02 10:15:02;;;;;;;5.78;2.45;;;;;;;15.27;42.82;102393.00;4915112;28;20027;-72
2023/05/02 10:17:38;;;;;;;7.43;3.10;;;;;;;14.94;43.43;102401.63;4906431;28;20040;-71
2023/05/02 10:20:05;;;;;;;5.22;2.88;;;;;;;14.82;44.00;102400.34;4912911;28;20036;-71
2023/05/02 10:22:33;;;;;;;6.65;2.80;;;;;;;15.14;44.60;102398.94;4902521;28;20114;-71
2023/05/02 10:25:00;;;;;;;7.95;2.92;;;;;;;17.06;40.55;102394.91;4903385;28;20087;-71
2023/05/02 10:27:28;;;;;;;4.88;2.60;;;;;;;17.31;40.42;102394.47;4905875;28;20036;-71
2023/05/02 10:29:56;;;;;;;5.00;3.08;;;;;;;16.44;41.64;102394.50;4982847;28;20049;-72
2023/05/02 10:32:26;;;;;;;8.07;3.33;;;;;;;15.96;42.79;102408.56;4928100;28;20102;-72
2023/05/02 10:34:55;;;;;;;7.88;3.30;;;;;;;17.90;40.83;102401.91;4905417;28;20032;-72
2023/05/02 10:37:21;;;;;;;8.98;3.80;;;;;;;18.58;38.09;102400.66;4899518;28;20087;-73
2023/05/02 10:39:47;;;;;;;7.38;3.20;;;;;;;17.66;38.07;102389.78;4906577;28;20726;-72
2023/05/02 10:42:13;;;;;;;4.68;2.90;;;;;;;17.68;39.07;102395.94;4903285;28;20020;-72
2023/05/02 10:44:40;;;;;;;4.57;2.63;;;;;;;20.51;34.79;102405.44;4938195;28;20038;-72
2023/05/02 10:47:17;;;;;;;5.32;2.60;;;;;;;22.89;32.11;102402.50;4919743;28;20032;-73
2023/05/02 10:49:56;;;;;;;6.95;2.67;;;;;;;24.15;29.20;102412.25;4904461;28;20257;-72
2023/05/02 10:52:29;;;;;;;6.38;3.00;;;;;;;23.78;26.71;102396.25;4900077;28;20399;-73
2023/05/02 10:55:16;;;;;;;6.20;2.70;;;;;;;21.66;30.45;102396.50;4906466;28;20032;-72
2023/05/02 10:58:00;;;;;;;5.30;2.80;;;;;;;19.11;33.97;102400.13;4909362;28;20618;-72
2023/05/02 11:00:31;;;;;;;6.53;3.38;;;;;;;18.22;35.32;102401.84;4905514;28;20039;-72
2023/05/02 11:02:57;;;;;;;7.22;3.53;;;;;;;17.38;37.51;102410.16;4910295;28;20035;-72
2023/05/02 11:05:23;;;;;;;8.13;3.22;;;;;;;16.80;39.15;102425.84;4905553;28;20028;-72
2023/05/02 11:07:49;;;;;;;7.53;3.40;;;;;;;16.44;39.99;102421.38;4918646;28;20032;-72
2023/05/02 11:10:19;;;;;;;7.13;3.85;;;;;;;16.15;40.71;102431.75;4903278;28;20040;-72
2023/05/02 11:12:50;;;;;;;7.07;3.70;;;;;;;16.55;39.27;102432.44;4903169;28;20395;-72
2023/05/02 11:15:27;;;;;;;8.32;3.70;;;;;;;16.79;39.93;102432.19;4904387;28;20036;-73
2023/05/02 11:18:00;;;;;;;5.47;2.78;;;;;;;16.96;39.83;102432.16;4920507;28;20384;-72
2023/05/02 11:20:27;;;;;;;6.30;3.03;;;;;;;17.55;37.94;102416.44;4904261;28;20167;-71
2023/05/02 11:22:54;;;;;;;8.00;3.15;;;;;;;19.58;35.49;102425.09;4921892;28;20039;-71